createdAt,value
2018-05-09T00:00:09.474Z,11.6
2018-05-09T00:01:00.035Z,11.6
2018-05-09T00:01:49.820Z,11.7
2018-05-09T00:02:40.431Z,11.7
2018-05-09T00:03:30.564Z,11.7
2018-05-09T00:04:20.288Z,11.7
2018-05-09T00:05:10.610Z,11.7
2018-05-09T00:06:00.691Z,11.7
2018-05-09T00:06:50.739Z,11.8
2018-05-09T00:07:40.531Z,11.8
2018-05-09T00:08:30.875Z,11.7
2018-05-09T00:09:20.386Z,11.6
2018-05-09T00:10:11.005Z,11.6
2018-05-09T00:11:01.073Z,11.7
2018-05-09T00:11:51.188Z,11.7
2018-05-09T00:12:40.908Z,11.7
2018-05-09T00:13:31.255Z,11.7
2018-05-09T00:14:21.323Z,11.7
2018-05-09T00:15:11.157Z,11.7
2018-05-09T00:16:01.442Z,11.6
2018-05-09T00:16:51.520Z,11.6
2018-05-09T00:17:41.585Z,11.6
2018-05-09T00:18:31.650Z,11.6
2018-05-09T00:19:21.415Z,11.5
2018-05-09T00:20:11.495Z,11.4
2018-05-09T00:21:01.834Z,11.4
2018-05-09T00:21:51.624Z,11.4
2018-05-09T00:22:42.001Z,11.5
2018-05-09T00:23:32.045Z,11.5
2018-05-09T00:24:21.844Z,11.5
2018-05-09T00:25:11.880Z,11.6
2018-05-09T00:26:01.678Z,11.6
2018-05-09T00:26:52.015Z,11.8
2018-05-09T00:27:41.792Z,11.8
2018-05-09T00:28:32.156Z,11.8
2018-05-09T00:29:21.650Z,11.8
2018-05-09T00:30:12.277Z,11.8
2018-05-09T00:31:02.338Z,11.7
2018-05-09T00:31:52.689Z,11.7
2018-05-09T00:32:42.499Z,11.7
2018-05-09T00:33:32.812Z,11.7
2018-05-09T00:34:22.841Z,11.7
2018-05-09T00:35:12.912Z,11.7
2018-05-09T00:36:03.002Z,11.6
2018-05-09T00:36:52.781Z,11.4
2018-05-09T00:37:42.576Z,11.3
2018-05-09T00:38:32.646Z,11.3
2018-05-09T00:39:22.973Z,11.3
2018-05-09T00:40:13.321Z,11.1
2018-05-09T00:41:03.122Z,11.1
2018-05-09T00:41:53.457Z,11.1
2018-05-09T00:42:43.504Z,11.1
2018-05-09T00:43:33.297Z,11.1
2018-05-09T00:44:23.636Z,11.1
2018-05-09T00:45:13.134Z,11.1
2018-05-09T00:46:03.843Z,11.1
2018-05-09T00:46:53.554Z,11
2018-05-09T00:47:43.899Z,10.9
2018-05-09T00:48:33.971Z,10.9
2018-05-09T00:49:24.041Z,10.9
2018-05-09T00:50:14.486Z,10.8
2018-05-09T00:51:03.590Z,10.8
2018-05-09T00:51:53.936Z,10.8
2018-05-09T00:52:44.386Z,10.7
2018-05-09T00:53:34.333Z,10.7
2018-05-09T00:54:24.403Z,10.7
2018-05-09T00:55:14.184Z,10.7
2018-05-09T00:56:04.546Z,10.6
2018-05-09T00:56:54.620Z,10.6
2018-05-09T00:57:44.399Z,10.5
2018-05-09T00:58:34.196Z,10.4
2018-05-09T00:59:24.499Z,10.4
2018-05-09T01:00:14.873Z,10.3
2018-05-09T01:01:04.896Z,10.3
2018-05-09T01:01:54.995Z,10.3
2018-05-09T01:02:44.774Z,10.3
2018-05-09T01:03:34.844Z,10.3
2018-05-09T01:04:24.888Z,10.4
2018-05-09T01:05:14.957Z,10.3
2018-05-09T01:06:05.310Z,10.3
2018-05-09T01:06:55.372Z,10.3
2018-05-09T01:07:45.443Z,10.2
2018-05-09T01:08:35.486Z,10.2
2018-05-09T01:09:25.562Z,10.1
2018-05-09T01:10:15.599Z,10.1
2018-05-09T01:11:05.688Z,10.1
2018-05-09T01:11:55.468Z,10.1
2018-05-09T01:12:45.524Z,10.1
2018-05-09T01:13:35.602Z,10.1
2018-05-09T01:14:25.957Z,10.1
2018-05-09T01:15:15.448Z,10.1
2018-05-09T01:16:06.072Z,10.1
2018-05-09T01:16:56.112Z,10.1
2018-05-09T01:17:46.206Z,10.1
2018-05-09T01:18:35.985Z,10.1
2018-05-09T01:19:26.356Z,10
2018-05-09T01:20:16.121Z,10
2018-05-09T01:21:06.451Z,9.9
2018-05-09T01:21:56.246Z,9.9
2018-05-09T01:22:46.308Z,9.9
2018-05-09T01:23:36.652Z,9.9
2018-05-09T01:24:26.492Z,10.1
2018-05-09T01:25:16.764Z,10
2018-05-09T01:26:06.560Z,10
2018-05-09T01:26:56.927Z,9.9
2018-05-09T01:27:46.970Z,9.9
2018-05-09T01:28:37.019Z,10
2018-05-09T01:29:26.559Z,10
2018-05-09T01:30:17.162Z,10.1
2018-05-09T01:31:06.927Z,10.1
2018-05-09T01:31:57.040Z,10.1
2018-05-09T01:32:47.351Z,10.1
2018-05-09T01:33:37.421Z,10.2
2018-05-09T01:34:27.547Z,10.3
2018-05-09T01:35:17.568Z,10.3
2018-05-09T01:36:07.309Z,10.2
2018-05-09T01:36:57.677Z,10.2
2018-05-09T01:37:47.461Z,10.1
2018-05-09T01:38:37.797Z,10.1
2018-05-09T01:39:27.599Z,10.1
2018-05-09T01:40:17.930Z,10.1
2018-05-09T01:41:07.149Z,10.1
2018-05-09T01:41:58.051Z,10.1
2018-05-09T01:42:48.113Z,10
2018-05-09T01:43:38.186Z,9.9
2018-05-09T01:44:27.389Z,9.8
2018-05-09T01:45:18.324Z,9.6
2018-05-09T01:46:08.100Z,9.6
2018-05-09T01:46:58.438Z,9.6
2018-05-09T01:47:48.511Z,9.6
2018-05-09T01:48:38.324Z,9.5
2018-05-09T01:49:28.624Z,9.5
2018-05-09T01:50:18.142Z,9.5
2018-05-09T01:51:08.761Z,9.5
2018-05-09T01:51:58.843Z,9.6
2018-05-09T01:52:48.595Z,9.7
2018-05-09T01:53:38.970Z,9.8
2018-05-09T01:54:29.019Z,9.8
2018-05-09T01:55:18.600Z,9.9
2018-05-09T01:56:09.170Z,9.9
2018-05-09T01:56:58.926Z,10
2018-05-09T01:57:49.094Z,10.1
2018-05-09T01:58:39.312Z,10.2
2018-05-09T01:59:29.145Z,10.2
2018-05-09T02:00:19.451Z,10.2
2018-05-09T02:01:09.511Z,10.1
2018-05-09T02:01:59.610Z,10
2018-05-09T02:02:49.653Z,9.9
2018-05-09T02:03:39.719Z,9.9
2018-05-09T02:04:29.488Z,9.9
2018-05-09T02:05:19.555Z,10
2018-05-09T02:06:10.355Z,10
2018-05-09T02:07:00.002Z,10.1
2018-05-09T02:07:50.042Z,10
2018-05-09T02:08:40.103Z,10
2018-05-09T02:09:29.878Z,9.9
2018-05-09T02:10:20.308Z,9.8
2018-05-09T02:11:10.297Z,9.6
2018-05-09T02:12:00.063Z,9.6
2018-05-09T02:12:50.423Z,9.6
2018-05-09T02:13:40.224Z,9.6
2018-05-09T02:14:30.561Z,9.6
2018-05-09T02:15:20.332Z,9.7
2018-05-09T02:16:10.408Z,9.8
2018-05-09T02:17:00.724Z,9.8
2018-05-09T02:17:50.807Z,9.8
2018-05-09T02:18:40.600Z,9.7
2018-05-09T02:19:30.918Z,9.6
2018-05-09T02:20:20.713Z,9.6
2018-05-09T02:21:11.074Z,9.6
2018-05-09T02:22:01.119Z,9.5
2018-05-09T02:22:51.171Z,9.4
2018-05-09T02:23:40.976Z,9.4
2018-05-09T02:24:31.299Z,9.3
2018-05-09T02:25:21.128Z,9.3
2018-05-09T02:26:11.446Z,9.3
2018-05-09T02:27:01.242Z,9.2
2018-05-09T02:27:51.577Z,9.2
2018-05-09T02:28:41.621Z,9.2
2018-05-09T02:29:31.148Z,9.2
2018-05-09T02:30:21.762Z,9.2
2018-05-09T02:31:12.285Z,9.2
2018-05-09T02:32:01.340Z,9.2
2018-05-09T02:32:51.978Z,9.3
2018-05-09T02:33:42.034Z,9.3
2018-05-09T04:37:18.320Z,10.7
2018-05-09T04:38:08.387Z,10.9
2018-05-09T04:38:58.148Z,10.9
2018-05-09T04:39:48.499Z,10.9
2018-05-09T04:40:38.552Z,10.8
2018-05-09T04:41:28.304Z,10.8
2018-05-09T04:42:18.386Z,10.8
2018-05-09T04:43:08.710Z,10.8
2018-05-09T04:43:58.492Z,10.9
2018-05-09T04:44:48.861Z,10.9
2018-05-09T04:45:38.652Z,10.9
2018-05-09T04:46:28.994Z,11
2018-05-09T04:47:19.056Z,11.1
2018-05-09T04:48:09.083Z,11.1
2018-05-09T04:48:59.153Z,11.1
2018-05-09T04:49:49.205Z,11.2
2018-05-09T04:50:39.257Z,11.2
2018-05-09T04:51:29.357Z,11.3
2018-05-09T04:52:19.397Z,11.4
2018-05-09T04:53:09.182Z,11.4
2018-05-09T04:53:59.513Z,11.4
2018-05-09T04:54:49.284Z,11.3
2018-05-09T04:55:40.565Z,11.5
2018-05-09T04:56:29.448Z,11.6
2018-05-09T04:57:19.479Z,11.6
2018-05-09T04:58:09.539Z,11.7
2018-05-09T04:58:59.611Z,11.7
2018-05-09T04:59:49.950Z,11.7
2018-05-09T05:00:40.030Z,11.7
2018-05-09T05:01:30.079Z,11.6
2018-05-09T05:02:19.851Z,11.6
2018-05-09T05:03:09.915Z,11.6
2018-05-09T05:04:00.277Z,11.6
2018-05-09T05:04:50.327Z,11.8
2018-05-09T05:05:40.412Z,11.9
2018-05-09T05:06:30.440Z,12
2018-05-09T05:07:20.522Z,12.1
2018-05-09T05:08:10.573Z,12.2
2018-05-09T05:09:00.634Z,12.1
2018-05-09T05:09:50.668Z,12.3
2018-05-09T05:10:40.448Z,12.3
2018-05-09T05:11:30.799Z,12.4
2018-05-09T05:12:20.088Z,12.4
2018-05-09T05:13:10.934Z,12.4
2018-05-09T05:14:00.986Z,12.6
2018-05-09T05:14:51.038Z,12.6
2018-05-09T05:15:41.445Z,12.9
2018-05-09T05:16:31.167Z,13
2018-05-09T05:17:20.667Z,12.9
2018-05-09T05:18:10.747Z,12.9
2018-05-09T05:19:00.806Z,13
2018-05-09T05:19:51.495Z,13.1
2018-05-09T05:20:41.205Z,13.3
2018-05-09T05:21:31.535Z,13.4
2018-05-09T05:22:21.325Z,13.7
2018-05-09T05:23:11.398Z,13.9
2018-05-09T05:24:01.471Z,14
2018-05-09T05:24:51.799Z,14.1
2018-05-09T05:25:41.911Z,14.1
2018-05-09T05:26:31.666Z,13.9
2018-05-09T05:27:21.701Z,13.9
2018-05-09T05:28:11.767Z,13.9
2018-05-09T05:29:01.850Z,13.9
2018-05-09T05:29:52.255Z,14.1
2018-05-09T05:30:42.233Z,14.2
2018-05-09T05:31:32.297Z,14.3
2018-05-09T05:32:22.065Z,14.5
2018-05-09T05:33:12.448Z,14.6
2018-05-09T05:34:02.182Z,14.6
2018-05-09T05:34:51.682Z,14.8
2018-05-09T05:35:42.592Z,14.8
2018-05-09T05:36:32.439Z,14.6
2018-05-09T05:37:22.728Z,14.6
2018-05-09T05:38:12.873Z,15.1
2018-05-09T05:39:02.848Z,15.1
2018-05-09T05:39:52.913Z,15.1
2018-05-09T05:40:42.973Z,15.1
2018-05-09T05:41:32.540Z,15.4
2018-05-09T05:42:22.817Z,15.4
2018-05-09T05:43:13.162Z,15.6
2018-05-09T05:44:03.226Z,15.9
2018-05-09T05:44:52.923Z,16
2018-05-09T05:45:43.087Z,16
2018-05-09T05:46:33.123Z,16.1
2018-05-09T05:47:23.474Z,16.1
2018-05-09T05:48:13.573Z,16.1
2018-05-09T05:49:02.748Z,16.2
2018-05-09T05:49:53.641Z,16.3
2018-05-09T05:50:43.738Z,16.3
2018-05-09T05:51:33.800Z,16.3
2018-05-09T05:52:23.860Z,16.3
2018-05-09T05:53:13.059Z,16.5
2018-05-09T05:54:03.704Z,16.4
2018-05-09T05:54:54.039Z,16.4
2018-05-09T05:55:44.092Z,16.6
2018-05-09T05:56:34.149Z,16.5
2018-05-09T05:57:23.921Z,16.5
2018-05-09T05:58:14.271Z,16.4
2018-05-09T05:59:04.344Z,16.4
2018-05-09T05:59:54.145Z,16.7
2018-05-09T06:00:44.488Z,16.6
2018-05-09T06:01:34.552Z,16.8
2018-05-09T06:02:24.314Z,17.1
2018-05-09T06:04:04.442Z,17.1
2018-05-09T06:04:54.502Z,17.2
2018-05-09T06:05:44.605Z,16.9
2018-05-09T06:06:34.653Z,16.9
2018-05-09T06:08:15.060Z,16.9
2018-05-09T06:09:54.879Z,17.1
2018-05-09T06:10:44.946Z,17.3
2018-05-09T06:11:35.024Z,17.5
2018-05-09T06:12:25.370Z,17.2
2018-05-09T06:13:15.421Z,17.1
2018-05-09T06:14:05.496Z,17.3
2018-05-09T06:14:54.963Z,17.3
2018-05-09T06:15:45.311Z,17.4
2018-05-09T06:16:35.382Z,17.4
2018-05-09T06:17:25.476Z,17.1
2018-05-09T06:18:15.791Z,16.8
2018-05-09T06:19:05.598Z,17.3
2018-05-09T06:19:55.909Z,17.4
2018-05-09T06:20:45.708Z,17.5
2018-05-09T06:21:35.767Z,17.5
2018-05-09T06:22:25.845Z,17.5
2018-05-09T06:23:15.932Z,17.9
2018-05-09T06:24:07.023Z,18
2018-05-09T06:24:56.048Z,17.9
2018-05-09T06:25:46.379Z,17.6
2018-05-09T06:26:36.174Z,17.6
2018-05-09T06:27:26.516Z,17.9
2018-05-09T06:28:16.294Z,17.8
2018-05-09T06:29:06.357Z,17.8
2018-05-09T06:29:56.422Z,17.3
2018-05-09T06:30:46.742Z,17.3
2018-05-09T06:31:36.551Z,17.4
2018-05-09T06:32:26.595Z,17.2
2018-05-09T06:33:16.677Z,17.1
2018-05-09T06:34:06.840Z,17.6
2018-05-09T06:34:57.091Z,17.8
2018-05-09T06:35:47.143Z,17.9
2018-05-09T06:36:36.939Z,18.4
2018-05-09T06:37:27.263Z,18.8
2018-05-09T06:38:17.322Z,18.6
2018-05-09T06:39:06.900Z,18.8
2018-05-09T06:39:57.419Z,19.1
2018-05-09T06:40:47.585Z,18.8
2018-05-09T06:42:27.623Z,18.4
2018-05-09T06:43:17.447Z,17.9
2018-05-09T06:44:06.934Z,17.7
2018-05-09T06:44:57.851Z,18.1
2018-05-09T06:45:47.619Z,18.6
2018-05-09T06:46:37.709Z,19.1
2018-05-09T06:47:27.724Z,18.9
2018-05-09T06:48:18.092Z,19.1
2018-05-09T06:49:07.872Z,19
2018-05-09T06:49:58.589Z,19.1
2018-05-09T06:50:48.304Z,19.5
2018-05-09T06:51:37.787Z,18.9
2018-05-09T06:52:28.134Z,18.2
2018-05-09T06:53:17.933Z,18.4
2018-05-09T06:54:58.331Z,19.2
2018-05-09T06:55:48.392Z,19.4
2018-05-09T06:56:38.440Z,19.4
2018-05-09T06:57:28.241Z,19.6
2018-05-09T06:58:18.312Z,19.9
2018-05-09T06:59:09.325Z,20.2
2018-05-09T06:59:59.081Z,19.8
2018-05-09T07:00:49.033Z,19.8
2018-05-09T07:01:39.169Z,19.3
2018-05-09T07:02:29.171Z,19.3
2018-05-09T07:03:19.250Z,19.1
2018-05-09T07:04:09.334Z,19.1
2018-05-09T07:04:59.085Z,18.9
2018-05-09T07:05:49.443Z,19.1
2018-05-09T07:06:41.433Z,19
2018-05-09T07:07:29.300Z,19
2018-05-09T07:08:19.647Z,18.9
2018-05-09T07:09:09.392Z,19.1
2018-05-09T07:09:59.183Z,19.3
2018-05-09T07:10:49.840Z,19.4
2018-05-09T07:11:39.331Z,19.8
2018-05-09T07:12:30.035Z,19.8
2018-05-09T07:13:19.739Z,19.4
2018-05-09T07:14:10.176Z,19.4
2018-05-09T07:15:00.126Z,19.3
2018-05-09T07:15:49.937Z,19.5
2018-05-09T07:16:40.267Z,19.8
2018-05-09T07:17:30.052Z,19.9
2018-05-09T07:18:20.381Z,20
2018-05-09T07:19:10.468Z,20.1
2018-05-09T07:20:00.238Z,19.9
2018-05-09T07:20:50.598Z,19.8
2018-05-09T07:21:40.077Z,19.8
2018-05-09T07:22:30.700Z,19.9
2018-05-09T07:23:20.753Z,20.3
2018-05-09T07:24:10.571Z,20.6
2018-05-09T07:25:00.625Z,20.4
2018-05-09T07:25:50.400Z,20.2
2018-05-09T07:26:41.026Z,20.3
2018-05-09T07:27:30.798Z,20.3
2018-05-09T07:28:20.891Z,20.9
2018-05-09T07:29:11.223Z,20.6
2018-05-09T07:30:01.289Z,20.3
2018-05-09T07:30:51.334Z,20.3
2018-05-09T07:31:41.396Z,20.4
2018-05-09T07:32:31.469Z,20.4
2018-05-09T07:33:21.531Z,20.4
2018-05-09T07:34:11.613Z,20.7
2018-05-09T07:35:01.675Z,21.2
2018-05-09T07:35:51.079Z,21.4
2018-05-09T07:36:41.530Z,21.6
2018-05-09T07:37:31.873Z,21.8
2018-05-09T07:38:21.084Z,21.9
2018-05-09T07:39:11.707Z,22.3
2018-05-09T07:40:02.040Z,22.2
2018-05-09T07:40:52.200Z,22.1
2018-05-09T07:41:41.907Z,22
2018-05-09T07:42:31.959Z,22.3
2018-05-09T07:43:22.304Z,22.2
2018-05-09T07:44:11.895Z,22.3
2018-05-09T07:45:02.459Z,22.3
2018-05-09T07:45:52.515Z,21.9
2018-05-09T07:46:42.547Z,21.2
2018-05-09T07:47:32.993Z,21.5
2018-05-09T07:48:22.428Z,21.8
2018-05-09T07:49:11.919Z,21.6
2018-05-09T07:50:02.250Z,21.3
2018-05-09T07:50:52.596Z,21
2018-05-09T07:51:42.655Z,21.4
2018-05-09T07:52:33.021Z,21.4
2018-05-09T07:54:12.573Z,21
2018-05-09T07:55:53.243Z,21.7
2018-05-09T07:56:43.124Z,21.3
2018-05-09T07:58:23.468Z,21.5
2018-05-09T07:59:13.521Z,21.2
2018-05-09T08:00:03.601Z,20.9
2018-05-09T08:00:53.355Z,20.8
2018-05-09T08:01:43.435Z,20.8
2018-05-09T08:02:33.503Z,21.2
2018-05-09T08:04:13.903Z,21.3
2018-05-09T08:05:03.974Z,21.3
2018-05-09T08:05:53.846Z,21.6
2018-05-09T08:06:43.829Z,22.1
2018-05-09T08:07:33.887Z,21.9
2018-05-09T08:08:24.231Z,21.9
2018-05-09T08:09:14.269Z,21.8
2018-05-09T08:10:04.390Z,21.8
2018-05-09T08:10:54.430Z,22.1
2018-05-09T08:11:44.487Z,22.4
2018-05-09T08:12:33.491Z,22.6
2018-05-09T08:13:24.049Z,22.3
2018-05-09T08:14:13.923Z,22.4
2018-05-09T08:15:03.994Z,22.9
2018-05-09T08:15:54.313Z,22.4
2018-05-09T08:16:44.200Z,22.4
2018-05-09T08:17:34.679Z,22.3
2018-05-09T08:18:24.244Z,22.3
2018-05-09T08:19:15.086Z,22.3
2018-05-09T08:20:04.363Z,22.7
2018-05-09T08:20:55.187Z,22.8
2018-05-09T08:21:45.248Z,22.7
2018-05-09T08:22:35.323Z,22.6
2018-05-09T08:23:25.400Z,23.1
2018-05-09T08:24:15.443Z,23.4
2018-05-09T08:25:05.745Z,23.1
2018-05-09T08:25:55.576Z,23.4
2018-05-09T08:26:44.855Z,23.7
2018-05-09T08:27:35.697Z,24
2018-05-09T08:28:25.802Z,23.8
2018-05-09T08:29:15.839Z,23.9
2018-05-09T08:30:05.995Z,24.1
2018-05-09T08:30:55.429Z,24.2
2018-05-09T08:31:45.466Z,24.1
2018-05-09T08:32:36.143Z,23.1
2018-05-09T08:33:26.162Z,22.6
2018-05-09T08:34:15.963Z,22.8
2018-05-09T08:35:06.314Z,23.4
2018-05-09T08:35:56.362Z,23.5
2018-05-09T08:36:46.463Z,23.8
2018-05-09T08:37:36.524Z,24.1
2018-05-09T08:38:26.271Z,24.3
2018-05-09T08:39:16.623Z,24.7
2018-05-09T08:40:06.703Z,24.6
2018-05-09T08:40:56.749Z,24.9
2018-05-09T08:41:46.539Z,24.7
2018-05-09T08:42:36.627Z,24.1
2018-05-09T08:43:27.620Z,24.3
2018-05-09T08:44:16.422Z,24.3
2018-05-09T08:45:07.087Z,24.6
2018-05-09T08:45:56.850Z,24.5
2018-05-09T08:46:46.891Z,24.7
2018-05-09T08:47:37.250Z,25.2
2018-05-09T08:48:27.052Z,25.2
2018-05-09T08:49:17.720Z,25
2018-05-09T08:50:07.438Z,25.4
2018-05-09T08:50:57.506Z,24.7
2018-05-09T08:51:47.296Z,24.5
2018-05-09T08:52:37.638Z,24.8
2018-05-09T08:53:27.694Z,24.7
2018-05-09T08:54:17.765Z,25.1
2018-05-09T08:55:07.845Z,25.3
2018-05-09T08:55:57.614Z,25.4
2018-05-09T08:56:47.675Z,25.5
2018-05-09T08:57:37.743Z,26.1
2018-05-09T08:58:28.106Z,26.2
2018-05-09T08:59:18.165Z,26.2
2018-05-09T09:00:07.963Z,26.3
2018-05-09T09:00:58.009Z,26.4
2018-05-09T09:01:47.299Z,26.5
2018-05-09T09:02:37.843Z,26.4
2018-05-09T09:03:28.476Z,25.6
2018-05-09T09:04:18.940Z,25.8
2018-05-09T09:05:08.311Z,26
2018-05-09T09:05:58.691Z,26
2018-05-09T09:06:48.743Z,25.9
2018-05-09T09:07:38.799Z,26.2
2018-05-09T09:08:28.838Z,26.2
2018-05-09T09:09:18.900Z,26.1
2018-05-09T09:10:09.013Z,26.1
2018-05-09T09:10:59.124Z,26.2
2018-05-09T09:11:49.110Z,26.2
2018-05-09T09:12:39.177Z,26
2018-05-09T09:13:28.959Z,26.2
2018-05-09T09:14:19.089Z,26
2018-05-09T09:15:09.375Z,25.6
2018-05-09T09:15:59.175Z,25.5
2018-05-09T09:16:49.199Z,25.4
2018-05-09T09:17:39.270Z,25.6
2018-05-09T09:18:29.578Z,26.1
2018-05-09T09:19:19.425Z,26
2018-05-09T09:20:09.783Z,25.5
2018-05-09T09:20:59.758Z,25.3
2018-05-09T09:21:49.879Z,24.9
2018-05-09T09:22:39.956Z,25.4
2018-05-09T09:23:29.455Z,25.8
2018-05-09T09:24:19.825Z,25.6
2018-05-09T09:25:09.318Z,25.1
2018-05-09T09:26:00.208Z,25.3
2018-05-09T09:26:50.278Z,25.3
2018-05-09T09:27:39.784Z,26.3
2018-05-09T09:28:30.397Z,26.3
2018-05-09T09:29:20.324Z,26.3
2018-05-09T09:30:10.596Z,26.8
2018-05-09T09:31:00.332Z,26.2
2018-05-09T09:31:50.394Z,25.7
2018-05-09T09:32:40.722Z,25.9
2018-05-09T09:33:30.800Z,26.5
2018-05-09T09:34:20.888Z,27.1
2018-05-09T09:35:10.669Z,27.3
2018-05-09T09:36:00.459Z,26.9
2018-05-09T09:36:51.032Z,27
2018-05-09T09:37:41.148Z,27.2
2018-05-09T09:38:30.914Z,27.3
2018-05-09T09:39:21.341Z,27.4
2018-05-09T09:40:11.330Z,27.8
2018-05-09T09:41:01.175Z,27.1
2018-05-09T09:41:51.532Z,26.8
2018-05-09T09:42:41.489Z,25.8
2018-05-09T09:43:31.563Z,26.1
2018-05-09T09:44:21.622Z,26.3
2018-05-09T09:45:11.669Z,26.9
2018-05-09T09:46:01.201Z,27.1
2018-05-09T09:46:51.651Z,26.9
2018-05-09T09:47:41.897Z,27.1
2018-05-09T09:48:31.675Z,27.2
2018-05-09T09:49:22.024Z,26.7
2018-05-09T09:50:12.070Z,26.6
2018-05-09T09:51:02.156Z,27.1
2018-05-09T09:51:51.650Z,27.4
2018-05-09T09:52:41.973Z,27.4
2018-05-09T09:53:32.354Z,27.2
2018-05-09T09:54:21.828Z,27.5
2018-05-09T09:55:12.209Z,28
2018-05-09T09:56:02.000Z,28.3
2018-05-09T09:56:52.599Z,28.6
2018-05-09T09:57:42.657Z,28.4
2018-05-09T09:58:32.464Z,28.2
2018-05-09T09:59:22.866Z,26.6
2018-05-09T10:00:12.278Z,25.4
2018-05-09T10:01:02.931Z,25.2
2018-05-09T10:01:52.971Z,25.1
2018-05-09T10:02:42.754Z,25.4
2018-05-09T10:03:32.850Z,25.7
2018-05-09T10:04:23.164Z,25.4
2018-05-09T10:05:13.250Z,25.6
2018-05-09T10:06:03.017Z,25.5
2018-05-09T10:06:53.348Z,26.3
2018-05-09T10:07:43.446Z,27
2018-05-09T10:08:33.499Z,27.4
2018-05-09T10:09:23.276Z,27.4
2018-05-09T10:10:13.332Z,26.8
2018-05-09T10:11:03.395Z,26.9
2018-05-09T10:11:53.193Z,26.6
2018-05-09T10:12:43.837Z,26.8
2018-05-09T10:13:33.906Z,26.9
2018-05-09T10:14:23.937Z,27.1
2018-05-09T10:15:13.723Z,26.6
2018-05-09T10:16:04.526Z,24.9
2018-05-09T10:16:53.838Z,24.8
2018-05-09T10:17:44.219Z,24.5
2018-05-09T10:18:34.258Z,25
2018-05-09T10:19:24.318Z,24.9
2018-05-09T10:20:14.383Z,24.1
2018-05-09T10:21:04.182Z,24.6
2018-05-09T10:21:54.546Z,25
2018-05-09T10:22:44.609Z,24.6
2018-05-09T10:23:34.350Z,25.1
2018-05-09T10:24:24.704Z,25.9
2018-05-09T10:25:14.795Z,26.1
2018-05-09T10:26:04.848Z,26.8
2018-05-09T10:26:54.889Z,26.4
2018-05-09T10:27:44.697Z,27.1
2018-05-09T10:28:34.761Z,27.6
2018-05-09T10:29:25.114Z,27.9
2018-05-09T10:30:15.172Z,28.3
2018-05-09T10:31:04.965Z,28.3
2018-05-09T10:31:55.409Z,27.9
2018-05-09T10:32:45.083Z,27.4
2018-05-09T10:33:35.170Z,27.5
2018-05-09T10:34:25.561Z,27.7
2018-05-09T10:35:14.980Z,27.7
2018-05-09T10:36:05.359Z,26.4
2018-05-09T10:36:55.126Z,26.4
2018-05-09T10:37:45.470Z,25.9
2018-05-09T10:38:35.805Z,26.3
2018-05-09T10:39:25.868Z,26.4
2018-05-09T10:40:15.938Z,27.1
2018-05-09T10:41:06.010Z,27.3
2018-05-09T10:41:56.050Z,27.8
2018-05-09T10:42:46.142Z,28.1
2018-05-09T10:43:36.184Z,27.9
2018-05-09T10:44:26.263Z,27.8
2018-05-09T10:45:16.393Z,28.3
2018-05-09T10:46:06.392Z,28.6
2018-05-09T10:46:56.464Z,28.7
2018-05-09T10:47:46.516Z,28.8
2018-05-09T10:48:36.606Z,29.1
2018-05-09T10:49:26.644Z,29.6
2018-05-09T10:50:16.725Z,29.6
2018-05-09T10:51:06.497Z,29.7
2018-05-09T10:51:56.541Z,29.8
2018-05-09T10:52:46.900Z,29.2
2018-05-09T10:53:37.002Z,28.6
2018-05-09T10:54:27.061Z,28.9
2018-05-09T10:55:17.079Z,28.9
2018-05-09T10:56:07.141Z,29.2
2018-05-09T10:56:56.943Z,29
2018-05-09T10:57:47.276Z,29
2018-05-09T10:58:37.067Z,29.1
2018-05-09T10:59:27.487Z,29
2018-05-09T11:00:17.478Z,28.6
2018-05-09T11:01:07.283Z,28.6
2018-05-09T11:01:57.620Z,28.1
2018-05-09T11:02:47.111Z,27.8
2018-05-09T11:03:37.755Z,28.4
2018-05-09T11:04:27.549Z,28.3
2018-05-09T11:05:17.575Z,27.9
2018-05-09T11:06:07.384Z,27.6
2018-05-09T11:06:57.727Z,28.3
2018-05-09T11:07:47.256Z,28
2018-05-09T11:08:37.565Z,28
2018-05-09T11:09:27.949Z,27.9
2018-05-09T11:10:18.281Z,27.7
2018-05-09T11:11:08.345Z,27.1
2018-05-09T11:11:58.390Z,26.8
2018-05-09T11:12:48.451Z,27
2018-05-09T11:13:38.498Z,27.3
2018-05-09T11:14:28.571Z,26.3
2018-05-09T11:15:18.626Z,26
2018-05-09T11:16:08.696Z,25.8
2018-05-09T11:16:58.484Z,26.5
2018-05-09T11:17:48.256Z,26.1
2018-05-09T11:18:38.609Z,25.6
2018-05-09T11:19:28.982Z,25.9
2018-05-09T11:20:19.027Z,25.8
2018-05-09T11:21:09.084Z,26.6
2018-05-09T11:21:59.184Z,27.1
2018-05-09T11:22:49.218Z,27.1
2018-05-09T11:23:39.348Z,27.5
2018-05-09T11:24:30.079Z,28.4
2018-05-09T11:25:19.126Z,28.9
2018-05-09T11:26:09.195Z,28.9
2018-05-09T11:26:59.267Z,28.9
2018-05-09T11:27:49.325Z,29.1
2018-05-09T11:28:39.666Z,28.4
2018-05-09T11:29:29.725Z,28.8
2018-05-09T11:30:19.805Z,29.1
2018-05-09T11:31:09.869Z,29
2018-05-09T11:31:59.455Z,29.4
2018-05-09T11:32:49.995Z,29.6
2018-05-09T11:33:39.779Z,29.6
2018-05-09T11:34:30.115Z,29.4
2018-05-09T11:35:20.184Z,29.9
2018-05-09T11:36:09.977Z,29.8
2018-05-09T11:37:00.308Z,29.8
2018-05-09T11:37:50.109Z,30
2018-05-09T11:38:40.438Z,29.8
2018-05-09T11:39:30.500Z,29.9
2018-05-09T11:40:20.297Z,30
2018-05-09T11:41:10.345Z,29.6
2018-05-09T11:42:00.716Z,29.9
2018-05-09T11:42:50.778Z,29.9
2018-05-09T11:43:40.848Z,29.3
2018-05-09T11:44:30.901Z,29.6
2018-05-09T11:45:20.971Z,29.9
2018-05-09T11:46:11.063Z,29.3
2018-05-09T11:47:00.825Z,29.2
2018-05-09T11:47:51.132Z,29.7
2018-05-09T11:48:41.229Z,29.9
2018-05-09T11:49:30.745Z,29.8
2018-05-09T11:50:21.335Z,30
2018-05-09T11:51:11.162Z,30.1
2018-05-09T11:52:01.200Z,30.3
2018-05-09T11:52:50.982Z,30.3
2018-05-09T11:53:41.615Z,29.6
2018-05-09T11:54:31.378Z,28.9
2018-05-09T11:55:21.482Z,28.8
2018-05-09T11:56:11.236Z,28.9
2018-05-09T11:57:01.860Z,29.3
2018-05-09T11:57:51.953Z,29.5
2018-05-09T11:58:41.983Z,28.4
2018-05-09T11:59:32.050Z,28.7
2018-05-09T12:00:22.112Z,29.1
2018-05-09T12:01:12.183Z,29.4
2018-05-09T12:02:02.276Z,29.8
2018-05-09T12:02:52.033Z,30.1
2018-05-09T12:03:42.409Z,30.3
2018-05-09T12:04:32.432Z,30.4
2018-05-09T12:05:22.517Z,30.4
2018-05-09T12:06:12.671Z,30.1
2018-05-09T12:07:02.646Z,29.9
2018-05-09T12:07:52.445Z,29.5
2018-05-09T12:08:42.497Z,29.6
2018-05-09T12:09:32.270Z,30.2
2018-05-09T12:10:23.593Z,30.3
2018-05-09T12:11:12.963Z,30.4
2018-05-09T12:12:03.029Z,30.7
2018-05-09T12:12:52.826Z,30.2
2018-05-09T12:13:43.177Z,29
2018-05-09T12:14:32.938Z,28.2
2018-05-09T12:15:23.295Z,28.3
2018-05-09T12:16:13.068Z,28.9
2018-05-09T12:17:03.412Z,28.9
2018-05-09T12:17:53.475Z,28.3
2018-05-09T12:18:43.558Z,27.8
2018-05-09T12:19:33.617Z,27
2018-05-09T12:21:13.208Z,27.9
2018-05-09T12:22:03.552Z,27.6
2018-05-09T12:22:53.681Z,27.7
2018-05-09T12:24:34.493Z,27.9
2018-05-09T12:25:23.495Z,28.4
2018-05-09T12:26:14.128Z,29.4
2018-05-09T12:27:03.997Z,29.6
2018-05-09T12:27:53.983Z,29.9
2018-05-09T12:28:44.330Z,29.5
2018-05-09T12:29:34.389Z,28.6
2018-05-09T12:30:24.450Z,28.6
2018-05-09T12:31:14.511Z,28.2
2018-05-09T12:32:04.572Z,28.9
2018-05-09T12:32:54.652Z,29.9
2018-05-09T12:33:44.727Z,30.2
2018-05-09T12:34:34.761Z,30.4
2018-05-09T12:35:24.531Z,30.2
2018-05-09T12:36:14.693Z,30.4
2018-05-09T12:37:04.967Z,30.6
2018-05-09T12:37:55.015Z,30.3
2018-05-09T12:38:44.853Z,30.3
2018-05-09T12:39:34.893Z,30.3
2018-05-09T12:40:25.244Z,30.4
2018-05-09T12:41:15.019Z,30.6
2018-05-09T12:42:05.369Z,30.5
2018-05-09T12:42:54.850Z,30.6
2018-05-09T12:43:45.481Z,30.8
2018-05-09T12:44:35.277Z,30.3
2018-05-09T12:45:25.339Z,29.8
2018-05-09T12:46:15.381Z,28.4
2018-05-09T12:47:05.731Z,28.1
2018-05-09T12:47:55.806Z,28.6
2018-05-09T12:48:46.648Z,29.5
2018-05-09T12:49:35.660Z,29.9
2018-05-09T12:50:25.777Z,29.8
2018-05-09T12:51:15.500Z,30.4
2018-05-09T12:52:05.579Z,30.4
2018-05-09T12:52:55.622Z,30.5
2018-05-09T12:53:46.261Z,30.6
2018-05-09T12:54:36.542Z,30.7
2018-05-09T12:55:26.364Z,30.5
2018-05-09T12:56:16.442Z,30.6
2018-05-09T12:57:06.496Z,30.8
2018-05-09T12:57:56.594Z,30.7
2018-05-09T12:58:46.383Z,30.9
2018-05-09T12:59:36.693Z,30.9
2018-05-09T13:00:27.253Z,31.3
2018-05-09T13:01:16.561Z,31.3
2018-05-09T13:02:06.358Z,30.9
2018-05-09T13:02:56.997Z,30.6
2018-05-09T13:03:46.483Z,30.3
2018-05-09T13:04:37.111Z,29.6
2018-05-09T13:05:27.170Z,30.4
2018-05-09T13:06:17.255Z,30.4
2018-05-09T13:07:06.822Z,29.9
2018-05-09T13:07:56.604Z,29.7
2018-05-09T13:08:47.153Z,29.9
2018-05-09T13:09:37.494Z,29.9
2018-05-09T13:10:27.545Z,30.3
2018-05-09T13:11:17.442Z,30
2018-05-09T13:12:07.397Z,29.8
2018-05-09T13:12:57.743Z,29.8
2018-05-09T13:13:47.805Z,28.9
2018-05-09T13:14:37.862Z,29.4
2018-05-09T13:15:27.651Z,29.5
2018-05-09T13:16:18.020Z,29.8
2018-05-09T13:17:07.779Z,28.3
2018-05-09T13:17:58.158Z,28.4
2018-05-09T13:18:47.939Z,28.5
2018-05-09T13:19:37.912Z,28.1
2018-05-09T13:20:28.055Z,28.3
2018-05-09T13:21:18.135Z,27.9
2018-05-09T13:22:08.195Z,27.3